Time;durP1;ratioP1;P1;durP2;ratioP2;P2;SDS_P1;SDS_P2;PMS_P1;PMS_P2;Temp;Humidity;BMP_temperature;BMP_pressure;BME280_temperature;BME280_humidity;BME280_pressure;Samples;Min_cycle;Max_cycle;Signal;HPM_P1;HPM_P2
2022/09/22 00:01:10;;;;;;;12.57;6.57;;;;;;;;;;4387999;32;70418;-59
2022/09/22 00:03:59;;;;;;;8.00;5.75;;;;;;;;;;4388189;32;69314;-60
2022/09/22 00:06:47;;;;;;;10.43;7.07;;;;;;;;;;4398558;32;66634;-60
2022/09/22 00:09:34;;;;;;;12.52;6.70;;;;;;;;;;4398451;32;71555;-59
2022/09/22 00:12:21;;;;;;;;;;;;;;;;;;4377104;32;64203;-59
2022/09/22 00:15:09;;;;;;;11.93;6.73;;;;;;;;;;4398828;32;68361;-60
2022/09/22 00:17:55;;;;;;;10.25;6.50;;;;;;;;;;4398722;32;59164;-60
2022/09/22 00:20:42;;;;;;;12.70;7.35;;;;;;;;;;4387209;32;71209;-60
2022/09/22 00:23:30;;;;;;;14.70;6.62;;;;;;;;;;4398462;32;69292;-61
2022/09/22 00:26:20;;;;;;;10.50;5.93;;;;;;;;;;4387992;32;66888;-59
2022/09/22 00:29:08;;;;;;;13.07;6.50;;;;;;;;;;4387329;32;61218;-60
2022/09/22 00:31:56;;;;;;;13.30;6.87;;;;;;;;;;4398398;32;70237;-59
2022/09/22 00:34:42;;;;;;;11.63;6.00;;;;;;;;;;4387513;32;69314;-61
2022/09/22 00:37:29;;;;;;;8.50;6.15;;;;;;;;;;4398456;32;66821;-60
2022/09/22 00:40:16;;;;;;;8.30;5.47;;;;;;;;;;4387412;32;71676;-60
2022/09/22 00:43:15;;;;;;;11.80;6.15;;;;;;;;;;4398303;32;66243;-60
2022/09/22 00:46:25;;;;;;;13.00;5.97;;;;;;;;;;4387544;32;66899;-60
2022/09/22 00:49:12;;;;;;;12.32;6.28;;;;;;;;;;4399493;32;59150;-60
2022/09/22 00:52:00;;;;;;;9.25;5.90;;;;;;;;;;4398095;32;71889;-59
2022/09/22 00:54:47;;;;;;;11.18;5.78;;;;;;;;;;4398364;32;65865;-60
2022/09/22 00:57:35;;;;;;;8.77;5.78;;;;;;;;;;4397996;32;66813;-59
2022/09/22 01:00:22;;;;;;;10.43;5.97;;;;;;;;;;4387723;32;59973;-60
2022/09/22 01:03:12;;;;;;;10.98;5.55;;;;;;;;;;4387295;32;70306;-59
2022/09/22 01:06:02;;;;;;;12.40;5.70;;;;;;;;;;4397857;32;69169;-60
2022/09/22 01:08:49;;;;;;;7.85;5.20;;;;;;;;;;4398049;32;67613;-60
2022/09/22 01:11:37;;;;;;;7.57;5.50;;;;;;;;;;4387167;32;71363;-59
2022/09/22 01:14:30;;;;;;;9.95;6.00;;;;;;;;;;4376759;32;65111;-59
2022/09/22 01:17:28;;;;;;;12.30;5.85;;;;;;;;;;4399214;32;68474;-60
2022/09/22 01:20:36;;;;;;;10.40;6.47;;;;;;;;;;4398939;32;66669;-60
2022/09/22 01:23:51;;;;;;;8.52;5.85;;;;;;;;;;4398823;32;70352;-58
2022/09/22 01:26:56;;;;;;;7.80;5.47;;;;;;;;;;4398822;32;64756;-59
2022/09/22 01:30:12;;;;;;;11.30;5.30;;;;;;;;;;4397776;32;68076;-60
2022/09/22 01:33:05;;;;;;;10.00;5.40;;;;;;;;;;4387077;32;59284;-60
2022/09/22 01:35:56;;;;;;;8.38;5.47;;;;;;;;;;4375157;32;70452;-59
2022/09/22 01:38:52;;;;;;;7.93;5.80;;;;;;;;;;4386970;32;68369;-60
2022/09/22 01:41:44;;;;;;;9.63;5.72;;;;;;;;;;4397494;32;66684;-59
2022/09/22 01:44:35;;;;;;;8.30;5.57;;;;;;;;;;4397802;32;60422;-60
2022/09/22 01:47:27;;;;;;;8.82;5.53;;;;;;;;;;4386726;32;69553;-62
2022/09/22 01:50:32;;;;;;;9.45;6.00;;;;;;;;;;4397359;32;69499;-60
2022/09/22 01:53:21;;;;;;;9.88;6.15;;;;;;;;;;4386670;32;66578;-59
2022/09/22 01:56:09;;;;;;;8.73;5.57;;;;;;;;;;4386083;32;72306;-59
2022/09/22 01:59:00;;;;;;;9.95;6.30;;;;;;;;;;4397113;32;66050;-60
2022/09/22 02:01:51;;;;;;;11.48;6.70;;;;;;;;;;4386196;32;68314;-59
2022/09/22 02:05:00;;;;;;;9.82;6.25;;;;;;;;;;4397607;32;60461;-60
2022/09/22 02:07:50;;;;;;;11.07;6.53;;;;;;;;;;4396653;32;69590;-60
2022/09/22 02:10:41;;;;;;;12.43;6.22;;;;;;;;;;4397244;32;64846;-60
2022/09/22 02:13:28;;;;;;;11.73;6.28;;;;;;;;;;4397344;32;67081;-60
2022/09/22 02:16:17;;;;;;;10.93;5.75;;;;;;;;;;4375811;32;61158;-60
2022/09/22 02:19:23;;;;;;;10.07;6.50;;;;;;;;;;4386330;32;70524;-59
2022/09/22 02:22:10;;;;;;;11.27;6.60;;;;;;;;;;4398263;32;69263;-60
2022/09/22 02:24:57;;;;;;;9.65;6.35;;;;;;;;;;4375692;32;67799;-60
2022/09/22 02:27:46;;;;;;;10.63;6.53;;;;;;;;;;4386502;32;71704;-60
2022/09/22 02:30:32;;;;;;;13.80;7.55;;;;;;;;;;4397416;32;65070;-60
2022/09/22 02:33:21;;;;;;;17.70;6.60;;;;;;;;;;4386499;32;69302;-60
2022/09/22 02:36:34;;;;;;;13.10;6.75;;;;;;;;;;4397096;32;66907;-60
2022/09/22 02:39:37;;;;;;;13.07;7.32;;;;;;;;;;4396801;32;71814;-60
2022/09/22 02:43:02;;;;;;;9.40;6.47;;;;;;;;;;4385873;32;66898;-60
2022/09/22 02:45:58;;;;;;;12.15;7.20;;;;;;;;;;4395506;32;68131;-61
2022/09/22 02:48:50;;;;;;;13.45;7.40;;;;;;;;;;4397106;32;59388;-61
2022/09/22 02:51:37;;;;;;;11.18;7.22;;;;;;;;;;4398081;32;70610;-60
2022/09/22 02:54:23;;;;;;;10.95;7.07;;;;;;;;;;4375591;32;69201;-60
2022/09/22 02:57:10;;;;;;;12.05;7.45;;;;;;;;;;4386179;32;67611;-59
2022/09/22 02:59:57;;;;;;;10.95;6.97;;;;;;;;;;4375187;32;59957;-60
2022/09/22 03:02:43;;;;;;;10.23;7.10;;;;;;;;;;4385909;32;69522;-61
2022/09/22 03:05:30;;;;;;;14.52;7.05;;;;;;;;;;4385960;32;69346;-59
2022/09/22 03:08:17;;;;;;;13.20;7.50;;;;;;;;;;4385988;32;66651;-60
2022/09/22 03:11:03;;;;;;;;;;;;;;;;;;4386018;32;71256;-59
2022/09/22 03:13:51;;;;;;;10.48;7.15;;;;;;;;;;4396906;32;65375;-60
2022/09/22 03:16:37;;;;;;;11.55;6.85;;;;;;;;;;4386083;32;67714;-59
2022/09/22 03:19:24;;;;;;;10.77;6.78;;;;;;;;;;4396602;32;60157;-60
2022/09/22 03:22:10;;;;;;;9.68;6.47;;;;;;;;;;4377679;32;69878;-60
2022/09/22 03:24:57;;;;;;;11.77;6.05;;;;;;;;;;4388773;32;65330;-59
2022/09/22 03:27:43;;;;;;;;;;;;;;;;;;4378105;32;68130;-60
2022/09/22 03:30:30;;;;;;;13.85;5.95;;;;;;;;;;4399554;32;59604;-59
2022/09/22 03:33:17;;;;;;;9.10;6.18;;;;;;;;;;4377708;32;69611;-59
2022/09/22 03:36:05;;;;;;;10.00;6.03;;;;;;;;;;4388549;32;69284;-59
2022/09/22 03:38:51;;;;;;;10.43;6.25;;;;;;;;;;4399037;32;66739;-59
2022/09/22 03:41:39;;;;;;;12.37;6.37;;;;;;;;;;4398822;32;71963;-59
2022/09/22 03:44:26;;;;;;;9.13;6.32;;;;;;;;;;4388485;32;65841;-59
2022/09/22 03:47:13;;;;;;;11.05;6.10;;;;;;;;;;4399294;32;66935;-60
2022/09/22 03:50:00;;;;;;;13.23;6.62;;;;;;;;;;4388504;32;67924;-60
2022/09/22 03:52:46;;;;;;;8.88;5.90;;;;;;;;;;4398652;32;71501;-60
2022/09/22 03:55:33;;;;;;;10.45;6.40;;;;;;;;;;4388283;32;65380;-60
2022/09/22 03:58:20;;;;;;;15.25;6.80;;;;;;;;;;4398471;32;67101;-60
2022/09/22 04:01:08;;;;;;;10.50;6.65;;;;;;;;;;4388271;32;60417;-61
2022/09/22 04:03:55;;;;;;;12.43;6.25;;;;;;;;;;4387580;32;69389;-60
2022/09/22 04:06:41;;;;;;;10.57;6.72;;;;;;;;;;4376452;32;66764;-60
2022/09/22 04:09:28;;;;;;;8.80;6.12;;;;;;;;;;4398609;32;67338;-60
2022/09/22 04:12:15;;;;;;;14.00;7.07;;;;;;;;;;4366136;32;72237;-58
2022/09/22 04:15:02;;;;;;;10.77;6.55;;;;;;;;;;4387822;32;69627;-60
2022/09/22 04:17:49;;;;;;;8.48;6.78;;;;;;;;;;4377008;32;69488;-60
2022/09/22 04:20:38;;;;;;;10.70;6.87;;;;;;;;;;4377107;32;68250;-60
2022/09/22 04:23:25;;;;;;;12.88;7.25;;;;;;;;;;4377299;32;70870;-59
2022/09/22 04:26:12;;;;;;;10.38;6.32;;;;;;;;;;4387725;32;65973;-59
2022/09/22 04:28:58;;;;;;;9.27;6.82;;;;;;;;;;4387909;32;67709;-59
2022/09/22 04:31:46;;;;;;;10.93;7.07;;;;;;;;;;4387702;32;60343;-60
2022/09/22 04:34:33;;;;;;;12.05;7.10;;;;;;;;;;4377032;32;70420;-60
2022/09/22 04:37:17;;;;;;;12.73;7.43;;;;;;;;;;3847481;37;43808;-60
2022/09/22 04:40:04;;;;;;;13.15;7.65;;;;;;;;;;4399276;32;58918;-59
2022/09/22 04:42:51;;;;;;;11.38;7.20;;;;;;;;;;4399096;32;69358;-61
2022/09/22 04:45:37;;;;;;;12.05;7.90;;;;;;;;;;4398528;32;69929;-59
2022/09/22 04:48:24;;;;;;;13.82;8.38;;;;;;;;;;4398863;32;67837;-59
2022/09/22 04:51:10;;;;;;;;;;;;;;;;;;4410165;32;71762;-59
2022/09/22 04:53:57;;;;;;;11.25;7.53;;;;;;;;;;4411129;32;66009;-60
2022/09/22 04:56:44;;;;;;;11.00;7.28;;;;;;;;;;4398775;32;67294;-60
2022/09/22 04:59:31;;;;;;;10.32;7.35;;;;;;;;;;4398881;32;60359;-60
2022/09/22 05:02:17;;;;;;;11.77;6.55;;;;;;;;;;4409316;32;70523;-59
2022/09/22 05:05:05;;;;;;;12.60;8.02;;;;;;;;;;4409361;32;65442;-58
2022/09/22 05:07:53;;;;;;;11.20;7.57;;;;;;;;;;4398676;32;66672;-59
2022/09/22 05:10:40;;;;;;;14.18;7.82;;;;;;;;;;4398832;32;60012;-59
2022/09/22 05:13:29;;;;;;;11.02;6.93;;;;;;;;;;4397786;32;71136;-60
2022/09/22 05:16:16;;;;;;;12.13;7.72;;;;;;;;;;4388216;32;69457;-60
2022/09/22 05:19:02;;;;;;;16.10;8.13;;;;;;;;;;4398659;32;67862;-60
2022/09/22 05:21:49;;;;;;;13.32;7.90;;;;;;;;;;4398326;32;70475;-59
2022/09/22 05:24:36;;;;;;;10.90;7.15;;;;;;;;;;4398966;32;65959;-60
2022/09/22 05:27:23;;;;;;;11.48;7.15;;;;;;;;;;4398300;32;68459;-59
2022/09/22 05:30:10;;;;;;;9.90;6.80;;;;;;;;;;4387163;32;68100;-59
2022/09/22 05:32:57;;;;;;;14.50;7.97;;;;;;;;;;4398278;32;72009;-61
2022/09/22 05:35:43;;;;;;;12.90;7.55;;;;;;;;;;4397974;32;65163;-61
2022/09/22 05:38:30;;;;;;;14.30;8.13;;;;;;;;;;4398216;32;67430;-60
2022/09/22 05:41:16;;;;;;;13.43;7.80;;;;;;;;;;4398513;32;59221;-61
2022/09/22 05:44:03;;;;;;;;;;;;;;;;;;4409196;32;70476;-60
2022/09/22 05:46:50;;;;;;;11.60;6.68;;;;;;;;;;4407479;32;68474;-60
2022/09/22 05:49:36;;;;;;;15.38;7.53;;;;;;;;;;4387855;32;67618;-60
2022/09/22 05:52:23;;;;;;;14.35;7.65;;;;;;;;;;4388258;32;59337;-60
2022/09/22 05:55:11;;;;;;;14.63;7.40;;;;;;;;;;4376338;32;71131;-60
2022/09/22 05:57:58;;;;;;;9.38;6.60;;;;;;;;;;4387345;32;70081;-60
2022/09/22 06:00:45;;;;;;;14.18;7.15;;;;;;;;;;4398563;32;66761;-62
2022/09/22 06:03:32;;;;;;;10.65;7.55;;;;;;;;;;4398331;32;70737;-60
2022/09/22 06:06:19;;;;;;;12.05;6.97;;;;;;;;;;4387773;32;66076;-60
2022/09/22 06:09:06;;;;;;;10.02;7.12;;;;;;;;;;4398422;32;67714;-59
2022/09/22 06:11:52;;;;;;;10.40;6.85;;;;;;;;;;4387839;32;60236;-59
2022/09/22 06:14:39;;;;;;;12.45;6.65;;;;;;;;;;4376995;32;69928;-61
2022/09/22 06:17:26;;;;;;;8.85;6.70;;;;;;;;;;4387609;32;65056;-61
2022/09/22 06:20:13;;;;;;;11.00;6.68;;;;;;;;;;4387611;32;66472;-61
2022/09/22 06:23:00;;;;;;;11.93;7.35;;;;;;;;;;4387816;32;60269;-61
2022/09/22 06:25:46;;;;;;;13.15;7.32;;;;;;;;;;4387725;32;69658;-59
2022/09/22 06:28:33;;;;;;;;;;;;;;;;;;4387704;32;68472;-59
2022/09/22 06:31:20;;;;;;;10.23;6.80;;;;;;;;;;4399561;32;67101;-59
2022/09/22 06:34:07;;;;;;;14.93;7.50;;;;;;;;;;4397828;32;71739;-60
2022/09/22 06:36:58;;;;;;;11.85;7.18;;;;;;;;;;4397533;32;64933;-59
2022/09/22 06:39:44;;;;;;;17.15;8.93;;;;;;;;;;4397975;32;67533;-60
2022/09/22 06:42:30;;;;;;;14.05;8.27;;;;;;;;;;4387381;32;67558;-60
2022/09/22 06:45:17;;;;;;;12.05;8.13;;;;;;;;;;4397707;32;70451;-59
2022/09/22 06:48:04;;;;;;;14.55;8.00;;;;;;;;;;4398028;32;66228;-60
2022/09/22 06:50:53;;;;;;;11.57;7.68;;;;;;;;;;4375654;32;68237;-61
2022/09/22 06:53:39;;;;;;;14.90;7.05;;;;;;;;;;4387359;32;59161;-60
2022/09/22 06:56:28;;;;;;;12.32;7.72;;;;;;;;;;4386913;32;69572;-60
2022/09/22 06:59:15;;;;;;;14.32;7.45;;;;;;;;;;4386241;32;69454;-60
2022/09/22 07:02:05;;;;;;;;;;;;;;;;;;4387049;32;67628;-59
2022/09/22 07:04:58;;;;;;;14.38;7.20;;;;;;;;;;4398087;32;58247;-60
2022/09/22 07:07:44;;;;;;;11.12;6.62;;;;;;;;;;4376485;32;70813;-59
2022/09/22 07:10:36;;;;;;;;;;;;;;;;;;4386570;32;68873;-60
2022/09/22 07:13:28;;;;;;;12.82;6.55;;;;;;;;;;4386990;32;67892;-61
2022/09/22 07:16:16;;;;;;;9.27;5.50;;;;;;;;;;4386865;32;71469;-59
2022/09/22 07:19:04;;;;;;;11.80;5.40;;;;;;;;;;4397466;32;64899;-60
2022/09/22 07:21:51;;;;;;;11.15;5.20;;;;;;;;;;4397512;32;67498;-58
2022/09/22 07:24:38;;;;;;;8.07;4.68;;;;;;;;;;4386815;32;60475;-60
2022/09/22 07:27:25;;;;;;;5.60;3.97;;;;;;;;;;4386298;32;69946;-60
2022/09/22 07:30:12;;;;;;;8.50;4.53;;;;;;;;;;4375957;32;66252;-59
2022/09/22 07:33:00;;;;;;;6.35;3.70;;;;;;;;;;4397402;32;67395;-60
2022/09/22 07:35:46;;;;;;;5.25;3.47;;;;;;;;;;4375302;32;61533;-60
2022/09/22 07:38:35;;;;;;;7.32;4.28;;;;;;;;;;4397093;32;69747;-60
2022/09/22 07:41:26;;;;;;;6.45;3.22;;;;;;;;;;4386798;32;68916;-61
2022/09/22 07:48:34;;;;;;;9.35;3.80;;;;;;;;;;4397210;32;71870;-61
2022/09/22 07:50:25;;;;;;;4.50;3.20;;;;;;;;;;4398522;32;66067;-59
2022/09/22 07:53:12;;;;;;;5.37;3.20;;;;;;;;;;4364702;32;68244;-60
2022/09/22 07:56:12;;;;;;;4.97;3.37;;;;;;;;;;4396947;32;67690;-60
2022/09/22 07:59:03;;;;;;;7.55;3.50;;;;;;;;;;4397370;32;71839;-59
2022/09/22 08:01:51;;;;;;;5.95;3.12;;;;;;;;;;4397376;32;66039;-60
2022/09/22 08:04:39;;;;;;;5.03;3.17;;;;;;;;;;4386334;32;67621;-59
2022/09/22 08:07:28;;;;;;;8.98;3.22;;;;;;;;;;4397368;32;59948;-60
2022/09/22 08:10:16;;;;;;;6.95;3.67;;;;;;;;;;4396622;32;69260;-60
2022/09/22 08:13:03;;;;;;;5.37;3.28;;;;;;;;;;4385994;32;69262;-59
2022/09/22 08:15:55;;;;;;;8.02;3.87;;;;;;;;;;4396660;32;67640;-59
2022/09/22 08:18:41;;;;;;;10.68;4.85;;;;;;;;;;4386892;32;71674;-59
2022/09/22 08:21:34;;;;;;;11.45;5.00;;;;;;;;;;4386091;32;69650;-59
2022/09/22 08:24:21;;;;;;;9.32;5.18;;;;;;;;;;4396985;32;69123;-59
2022/09/22 08:27:08;;;;;;;13.20;7.60;;;;;;;;;;4375401;32;67867;-60
2022/09/22 08:29:54;;;;;;;9.75;5.85;;;;;;;;;;4375508;32;71019;-59
2022/09/22 08:32:41;;;;;;;8.73;5.70;;;;;;;;;;4397999;32;66516;-59
2022/09/22 08:35:27;;;;;;;8.68;6.00;;;;;;;;;;4385114;32;68165;-59
2022/09/22 08:38:15;;;;;;;9.60;5.72;;;;;;;;;;4396709;32;59783;-60
2022/09/22 08:41:14;;;;;;;9.88;4.30;;;;;;;;;;4386145;32;70405;-60
2022/09/22 08:44:22;;;;;;;6.50;3.85;;;;;;;;;;4396567;32;69417;-59
2022/09/22 08:51:50;;;;;;;8.68;4.37;;;;;;;;;;4396500;32;67869;-60
2022/09/22 08:53:55;;;;;;;5.80;3.37;;;;;;;;;;4396701;32;69290;-61
2022/09/22 08:56:56;;;;;;;5.65;3.17;;;;;;;;;;4375030;32;69330;-60
2022/09/22 09:00:13;;;;;;;6.57;3.30;;;;;;;;;;4397641;32;67382;-60
2022/09/22 09:03:37;;;;;;;4.47;3.00;;;;;;;;;;4369867;32;71404;-62
2022/09/22 09:06:39;;;;;;;5.53;3.50;;;;;;;;;;4385446;32;65803;-60
2022/09/22 09:09:44;;;;;;;6.25;3.10;;;;;;;;;;4396467;32;67725;-60
2022/09/22 09:13:06;;;;;;;6.07;2.90;;;;;;;;;;4396589;32;59399;-59
2022/09/22 09:16:24;;;;;;;5.05;3.10;;;;;;;;;;4371167;32;71853;-60
2022/09/22 09:19:25;;;;;;;5.03;3.08;;;;;;;;;;4385534;32;65872;-58
2022/09/22 09:22:24;;;;;;;6.35;3.20;;;;;;;;;;4398227;32;67720;-59
2022/09/22 09:25:21;;;;;;;5.10;2.62;;;;;;;;;;4399083;32;60360;-58
2022/09/22 09:28:32;;;;;;;5.28;2.70;;;;;;;;;;4387704;32;70702;-60
2022/09/22 09:31:42;;;;;;;5.30;2.78;;;;;;;;;;4377168;32;69311;-60
2022/09/22 09:34:30;;;;;;;5.50;3.03;;;;;;;;;;4398716;32;67822;-60
2022/09/22 09:37:17;;;;;;;7.40;3.05;;;;;;;;;;4387697;32;72073;-59
2022/09/22 09:40:06;;;;;;;4.78;2.67;;;;;;;;;;4377394;32;69530;-60
2022/09/22 09:43:00;;;;;;;6.90;3.25;;;;;;;;;;4398599;32;69410;-59
2022/09/22 09:45:56;;;;;;;7.28;4.35;;;;;;;;;;4377288;32;67276;-59
2022/09/22 09:49:13;;;;;;;8.13;3.78;;;;;;;;;;4387608;32;71714;-59
2022/09/22 09:52:01;;;;;;;6.18;2.87;;;;;;;;;;4387594;32;67093;-60
2022/09/22 09:54:48;;;;;;;6.22;2.83;;;;;;;;;;4387900;32;67795;-58
2022/09/22 09:57:36;;;;;;;5.62;2.40;;;;;;;;;;4377364;32;59745;-59
2022/09/22 10:00:32;;;;;;;6.53;2.83;;;;;;;;;;4387798;32;69971;-60
2022/09/22 10:03:30;;;;;;;3.17;2.50;;;;;;;;;;4377951;32;69455;-59
2022/09/22 10:06:24;;;;;;;4.37;2.25;;;;;;;;;;4398247;32;66876;-61
2022/09/22 10:09:11;;;;;;;5.80;2.80;;;;;;;;;;4377625;32;60402;-61
2022/09/22 10:11:58;;;;;;;;;;;;;;;;;;4387852;32;70466;-59
2022/09/22 10:14:52;;;;;;;6.50;3.13;;;;;;;;;;4387759;32;68415;-60
2022/09/22 10:17:43;;;;;;;7.18;3.10;;;;;;;;;;4387202;32;67868;-59
2022/09/22 10:20:34;;;;;;;4.85;2.55;;;;;;;;;;4398136;32;71594;-60
2022/09/22 10:23:22;;;;;;;5.50;3.15;;;;;;;;;;4399542;32;64904;-60
2022/09/22 10:26:22;;;;;;;4.40;2.92;;;;;;;;;;4398074;32;67040;-61
2022/09/22 10:29:19;;;;;;;6.35;2.90;;;;;;;;;;4399575;32;59160;-59
2022/09/22 10:32:16;;;;;;;5.40;3.10;;;;;;;;;;4387394;32;70672;-59
2022/09/22 10:35:26;;;;;;;4.32;2.90;;;;;;;;;;4386303;32;67340;-59
2022/09/22 10:38:21;;;;;;;5.25;2.87;;;;;;;;;;4397983;32;67013;-60
2022/09/22 10:41:09;;;;;;;5.10;2.90;;;;;;;;;;4376679;32;61226;-59
2022/09/22 10:43:59;;;;;;;7.10;3.37;;;;;;;;;;4376583;32;70476;-59
2022/09/22 10:47:10;;;;;;;8.45;3.05;;;;;;;;;;4387097;32;70120;-60
2022/09/22 10:50:23;;;;;;;6.87;2.90;;;;;;;;;;4387273;32;66843;-59
2022/09/22 10:53:38;;;;;;;8.98;3.28;;;;;;;;;;4397627;32;70789;-60
2022/09/22 10:56:36;;;;;;;8.60;3.30;;;;;;;;;;4387160;32;65265;-60
2022/09/22 10:59:52;;;;;;;5.78;3.35;;;;;;;;;;4387037;32;68264;-59
2022/09/22 11:02:51;;;;;;;5.30;3.00;;;;;;;;;;4397784;32;67889;-59
2022/09/22 11:12:45;;;;;;;6.87;3.03;;;;;;;;;;4398111;32;67834;-59
2022/09/22 11:16:05;;;;;;;5.10;3.10;;;;;;;;;;4399200;32;60044;-60
2022/09/22 11:19:23;;;;;;;4.50;3.00;;;;;;;;;;4397189;32;70764;-61
2022/09/22 11:22:29;;;;;;;;;;;;;;;;;;4397738;32;69609;-61
2022/09/22 11:25:27;;;;;;;4.53;2.70;;;;;;;;;;4397571;32;66794;-61
2022/09/22 11:28:35;;;;;;;5.07;3.35;;;;;;;;;;4397551;32;59158;-60
2022/09/22 11:31:36;;;;;;;6.03;3.30;;;;;;;;;;4386771;32;70501;-58
2022/09/22 11:34:33;;;;;;;6.95;3.42;;;;;;;;;;4398670;32;68394;-59
2022/09/22 11:37:39;;;;;;;5.85;2.97;;;;;;;;;;4397182;32;66675;-60
2022/09/22 11:40:40;;;;;;;6.78;3.12;;;;;;;;;;4397097;32;70739;-61
2022/09/22 11:43:52;;;;;;;4.25;3.10;;;;;;;;;;4397162;32;64814;-59
2022/09/22 11:46:48;;;;;;;5.97;3.25;;;;;;;;;;4385279;32;67467;-60
2022/09/22 11:50:01;;;;;;;5.10;3.20;;;;;;;;;;4396982;32;60178;-60
2022/09/22 11:53:15;;;;;;;4.93;3.20;;;;;;;;;;4396817;32;70424;-59
2022/09/22 11:56:23;;;;;;;8.70;3.20;;;;;;;;;;4398336;32;65308;-59
2022/09/22 11:59:23;;;;;;;9.73;3.70;;;;;;;;;;4385436;32;68187;-59
2022/09/22 12:02:33;;;;;;;6.18;3.15;;;;;;;;;;4386304;32;59203;-60
2022/09/22 12:05:29;;;;;;;6.03;3.30;;;;;;;;;;4385416;32;71187;-59
2022/09/22 12:08:27;;;;;;;4.68;3.37;;;;;;;;;;4396812;32;69824;-60
2022/09/22 12:11:15;;;;;;;8.18;3.70;;;;;;;;;;4396869;32;67931;-60
2022/09/22 12:14:02;;;;;;;10.55;3.50;;;;;;;;;;4364239;32;71927;-61
2022/09/22 12:17:07;;;;;;;6.30;3.30;;;;;;;;;;4396798;32;65760;-60
2022/09/22 12:20:29;;;;;;;9.77;3.30;;;;;;;;;;4386010;32;69435;-60
2022/09/22 12:23:19;;;;;;;6.55;3.37;;;;;;;;;;4383228;32;67525;-61
2022/09/22 12:26:15;;;;;;;6.50;3.45;;;;;;;;;;4364127;32;71843;-62
2022/09/22 12:29:18;;;;;;;8.30;3.60;;;;;;;;;;4396881;32;65988;-59
2022/09/22 12:32:04;;;;;;;5.32;3.12;;;;;;;;;;4396844;32;67894;-60
2022/09/22 12:34:52;;;;;;;10.50;4.32;;;;;;;;;;4385621;32;59699;-60
2022/09/22 12:37:39;;;;;;;7.20;3.08;;;;;;;;;;4375031;32;70169;-60
2022/09/22 12:40:40;;;;;;;11.95;3.85;;;;;;;;;;4386103;32;68252;-60
2022/09/22 12:43:26;;;;;;;7.72;3.92;;;;;;;;;;4386490;32;67878;-60
2022/09/22 12:46:23;;;;;;;9.23;4.47;;;;;;;;;;4375520;32;60180;-60
2022/09/22 12:49:13;;;;;;;9.85;3.78;;;;;;;;;;4385639;32;70372;-60
2022/09/22 12:51:59;;;;;;;7.18;3.85;;;;;;;;;;4374805;32;70195;-61
2022/09/22 12:54:46;;;;;;;;;;;;;;;;;;4396868;32;67874;-60
2022/09/22 12:57:47;;;;;;;11.98;4.30;;;;;;;;;;4397416;32;71727;-61
2022/09/22 13:00:36;;;;;;;11.12;3.85;;;;;;;;;;4388411;32;65021;-59
2022/09/22 13:03:25;;;;;;;9.13;4.30;;;;;;;;;;4377418;32;68403;-60
2022/09/22 13:06:21;;;;;;;12.35;4.47;;;;;;;;;;4399287;32;59047;-61
2022/09/22 13:09:17;;;;;;;6.78;3.83;;;;;;;;;;4376664;32;70353;-60
2022/09/22 13:12:13;;;;;;;8.00;4.00;;;;;;;;;;4366430;32;66601;-59
2022/09/22 13:15:18;;;;;;;12.37;4.90;;;;;;;;;;4398686;32;67798;-61
2022/09/22 13:18:06;;;;;;;12.57;6.45;;;;;;;;;;4376778;32;60016;-60
2022/09/22 13:20:53;;;;;;;22.95;8.32;;;;;;;;;;4398871;32;70809;-60
2022/09/22 13:23:58;;;;;;;16.52;7.53;;;;;;;;;;4376837;32;69799;-60
2022/09/22 13:26:46;;;;;;;18.00;7.22;;;;;;;;;;4400123;32;67679;-58
2022/09/22 13:29:33;;;;;;;23.55;11.40;;;;;;;;;;4398598;32;71687;-59
2022/09/22 13:32:25;;;;;;;26.67;14.38;;;;;;;;;;4373193;32;64854;-59
2022/09/22 13:35:36;;;;;;;32.85;15.98;;;;;;;;;;4372688;32;68339;-58
2022/09/22 13:38:23;;;;;;;24.87;13.95;;;;;;;;;;4383299;32;67671;-59
2022/09/22 13:41:32;;;;;;;27.25;11.35;;;;;;;;;;4372849;32;71858;-60
2022/09/22 13:44:26;;;;;;;23.75;11.73;;;;;;;;;;4372790;32;66009;-59
2022/09/22 13:47:22;;;;;;;24.45;13.52;;;;;;;;;;4383349;32;67848;-59
2022/09/22 13:50:18;;;;;;;25.10;14.55;;;;;;;;;;4383244;32;60608;-59
2022/09/22 13:53:06;;;;;;;27.05;14.05;;;;;;;;;;4371992;32;70646;-60
2022/09/22 13:55:53;;;;;;;26.58;14.23;;;;;;;;;;4383192;32;69246;-60
2022/09/22 13:58:40;;;;;;;;;;;;;;;;;;4362018;32;68222;-60
2022/09/22 14:01:28;;;;;;;22.70;11.20;;;;;;;;;;4383853;32;71692;-60
2022/09/22 14:04:26;;;;;;;24.60;11.45;;;;;;;;;;4383335;32;70505;-59
2022/09/22 14:07:13;;;;;;;19.33;11.45;;;;;;;;;;4383072;32;69258;-60
2022/09/22 14:10:01;;;;;;;23.70;13.25;;;;;;;;;;4373989;32;67301;-60
2022/09/22 14:12:48;;;;;;;28.33;13.57;;;;;;;;;;4372412;32;70772;-59
2022/09/22 14:15:37;;;;;;;24.02;12.77;;;;;;;;;;4383013;32;65318;-59
2022/09/22 14:18:27;;;;;;;24.15;14.07;;;;;;;;;;4383081;32;67961;-59
2022/09/22 14:21:14;;;;;;;21.75;13.35;;;;;;;;;;4383484;32;58973;-59
2022/09/22 14:24:01;;;;;;;28.10;11.93;;;;;;;;;;4384263;32;69776;-58
2022/09/22 14:26:51;;;;;;;;;;;;;;;;;;4383392;32;69316;-60
2022/09/22 14:29:39;;;;;;;22.23;11.63;;;;;;;;;;4383196;32;67175;-59
2022/09/22 14:32:38;;;;;;;24.23;12.07;;;;;;;;;;4383070;32;59276;-59
2022/09/22 14:35:36;;;;;;;20.25;12.32;;;;;;;;;;4382309;32;70662;-60
2022/09/22 14:38:23;;;;;;;20.90;11.48;;;;;;;;;;4382442;32;69660;-59
2022/09/22 14:41:22;;;;;;;20.55;11.20;;;;;;;;;;4372240;32;66593;-59
2022/09/22 14:44:31;;;;;;;25.35;13.95;;;;;;;;;;4382542;32;71635;-59
2022/09/22 14:47:25;;;;;;;19.62;11.80;;;;;;;;;;4371559;32;66891;-59
2022/09/22 14:50:19;;;;;;;19.83;10.90;;;;;;;;;;4383028;32;68434;-60
2022/09/22 14:53:31;;;;;;;25.02;13.70;;;;;;;;;;4382551;32;67791;-60
2022/09/22 14:56:26;;;;;;;19.92;12.13;;;;;;;;;;4382518;32;71717;-59
2022/09/22 15:02:34;;;;;;;25.73;16.10;;;;;;;;;;4382751;32;67867;-59
2022/09/22 15:05:27;;;;;;;22.50;14.35;;;;;;;;;;4373112;32;60100;-59
2022/09/22 15:08:17;;;;;;;24.73;15.05;;;;;;;;;;4382646;32;70862;-59
2022/09/22 15:11:04;;;;;;;20.42;13.40;;;;;;;;;;4371084;32;69809;-60
2022/09/22 15:13:51;;;;;;;25.33;15.57;;;;;;;;;;4371844;32;67506;-60
2022/09/22 15:16:40;;;;;;;25.23;16.08;;;;;;;;;;4361675;32;70650;-59
2022/09/22 15:19:27;;;;;;;28.02;16.35;;;;;;;;;;4381720;32;69743;-59
2022/09/22 15:22:14;;;;;;;36.53;19.75;;;;;;;;;;4372847;32;68493;-59
2022/09/22 15:25:01;;;;;;;37.63;22.25;;;;;;;;;;4382395;32;67679;-59
2022/09/22 15:27:41;;;;;;;34.78;19.62;;;;;;;;;;3847511;37;43464;-59
2022/09/22 15:30:31;;;;;;;38.00;20.98;;;;;;;;;;4388514;32;60133;-60
2022/09/22 15:33:18;;;;;;;31.10;19.23;;;;;;;;;;4409630;32;70453;-60
2022/09/22 15:36:12;;;;;;;37.47;21.58;;;;;;;;;;4388248;32;69392;-60
2022/09/22 15:39:20;;;;;;;36.67;19.70;;;;;;;;;;4398789;32;66591;-60
2022/09/22 15:42:12;;;;;;;34.70;19.42;;;;;;;;;;4410640;32;71754;-59
2022/09/22 15:49:39;;;;;;;27.90;17.77;;;;;;;;;;4410770;32;67873;-60
2022/09/22 15:52:26;;;;;;;28.17;18.80;;;;;;;;;;4388303;32;60253;-60
2022/09/22 15:55:14;;;;;;;34.38;18.25;;;;;;;;;;4398447;32;71580;-59
2022/09/22 15:58:07;;;;;;;27.42;16.90;;;;;;;;;;4397896;32;66822;-59
2022/09/22 16:00:54;;;;;;;24.42;15.38;;;;;;;;;;4388604;32;66619;-59
2022/09/22 16:03:41;;;;;;;25.25;16.62;;;;;;;;;;4398713;32;59150;-59
2022/09/22 16:06:28;;;;;;;24.95;15.57;;;;;;;;;;4400709;32;69817;-60
2022/09/22 16:09:16;;;;;;;32.35;17.15;;;;;;;;;;4383113;32;69270;-59
2022/09/22 16:12:04;;;;;;;31.87;18.45;;;;;;;;;;4383040;32;67625;-60
2022/09/22 16:14:52;;;;;;;34.95;18.50;;;;;;;;;;4393684;32;71903;-60
2022/09/22 16:17:42;;;;;;;35.60;17.70;;;;;;;;;;4383136;32;66604;-59
2022/09/22 16:20:29;;;;;;;29.95;16.60;;;;;;;;;;4382560;32;69871;-59
2022/09/22 16:23:15;;;;;;;25.92;17.08;;;;;;;;;;4371421;32;68294;-59
2022/09/22 16:26:02;;;;;;;;;;;;;;;;;;4382127;32;72381;-59
2022/09/22 16:28:48;;;;;;;25.08;13.02;;;;;;;;;;4383126;32;66094;-59
2022/09/22 16:31:36;;;;;;;25.65;14.05;;;;;;;;;;4383069;32;67619;-60
2022/09/22 16:34:23;;;;;;;24.85;13.00;;;;;;;;;;4372571;32;60587;-60
2022/09/22 16:37:10;;;;;;;17.17;10.63;;;;;;;;;;4380262;32;69399;-59
2022/09/22 16:39:57;;;;;;;18.40;10.07;;;;;;;;;;4372839;32;69250;-60
2022/09/22 16:42:43;;;;;;;18.17;9.80;;;;;;;;;;4383406;32;66812;-59
2022/09/22 16:48:40;;;;;;;13.98;9.60;;;;;;;;;;4383443;32;69872;-59
2022/09/22 16:51:27;;;;;;;15.65;10.40;;;;;;;;;;4383143;32;68369;-60
2022/09/22 16:54:14;;;;;;;17.77;10.82;;;;;;;;;;4383101;32;67553;-59
2022/09/22 16:57:01;;;;;;;18.42;9.77;;;;;;;;;;4361893;32;71842;-59
2022/09/22 16:59:49;;;;;;;17.23;9.95;;;;;;;;;;4362109;32;64946;-60
2022/09/22 17:02:35;;;;;;;15.95;10.82;;;;;;;;;;4383112;32;67646;-59
2022/09/22 17:05:22;;;;;;;17.00;10.30;;;;;;;;;;4384639;32;59225;-60
2022/09/22 17:08:08;;;;;;;;;;;;;;;;;;4383325;32;69706;-58
2022/09/22 17:10:55;;;;;;;14.50;10.20;;;;;;;;;;4383363;32;65761;-59
2022/09/22 17:13:42;;;;;;;14.15;9.43;;;;;;;;;;4361944;32;67498;-59
2022/09/22 17:16:37;;;;;;;17.02;9.50;;;;;;;;;;4383331;32;58786;-59
2022/09/22 17:19:25;;;;;;;14.98;9.63;;;;;;;;;;4372176;32;70433;-58
2022/09/22 17:22:12;;;;;;;15.45;9.93;;;;;;;;;;4371810;32;68970;-60
2022/09/22 17:24:59;;;;;;;15.60;9.63;;;;;;;;;;4382738;32;67393;-60
2022/09/22 17:27:45;;;;;;;15.43;9.80;;;;;;;;;;4352487;32;71998;-59
2022/09/22 17:30:32;;;;;;;13.93;9.68;;;;;;;;;;4331899;32;65759;-59